createdAt,value
2018-04-19T00:00:29.604Z,8.73
2018-04-19T00:02:59.948Z,8.40
2018-04-19T00:05:30.915Z,8.90
2018-04-19T00:08:02.547Z,8.40
2018-04-19T00:10:32.359Z,8.83
2018-04-19T00:13:02.969Z,8.27
2018-04-19T00:15:33.702Z,8.20
2018-04-19T00:18:04.226Z,7.40
2018-04-19T00:20:36.190Z,8.73
2018-04-19T00:23:06.291Z,8.40
2018-04-19T00:25:37.614Z,7.93
2018-04-19T00:28:07.072Z,7.70
2018-04-19T00:30:37.879Z,8.70
2018-04-19T00:33:08.592Z,8.47
2018-04-19T00:35:40.072Z,8.30
2018-04-19T00:38:10.283Z,7.50
2018-04-19T00:40:40.231Z,7.73
2018-04-19T00:43:10.205Z,7.53
2018-04-19T00:45:42.056Z,7.80
2018-04-19T00:48:12.991Z,8.00
2018-04-19T00:50:42.168Z,7.63
2018-04-19T00:53:12.280Z,8.83
2018-04-19T00:55:44.008Z,8.07
2018-04-19T00:58:14.972Z,8.03
2018-04-19T01:00:45.687Z,8.10
2018-04-19T01:03:17.667Z,9.00
2018-04-19T01:05:47.335Z,7.83
2018-04-19T01:08:17.669Z,7.47
2018-04-19T01:10:47.083Z,9.27
2018-04-19T01:13:17.482Z,8.60
2018-04-19T01:15:48.264Z,9.03
2018-04-19T01:18:19.964Z,8.50
2018-04-19T01:20:49.835Z,8.10
2018-04-19T01:23:22.631Z,8.93
2018-04-19T01:25:53.042Z,8.87
2018-04-19T01:28:23.595Z,8.30
2018-04-19T01:30:54.679Z,8.40
2018-04-19T01:33:25.091Z,8.27
2018-04-19T01:36:06.038Z,7.57
2018-04-19T01:38:35.882Z,8.43
2018-04-19T01:41:05.475Z,8.70
2018-04-19T01:43:35.811Z,7.37
2018-04-19T01:46:05.719Z,8.27
2018-04-19T01:48:36.316Z,7.80
2018-04-19T01:51:06.651Z,7.83
2018-04-19T01:53:37.676Z,7.90
2018-04-19T01:56:07.996Z,8.03
2018-04-19T01:58:38.407Z,7.63
2018-04-19T02:01:08.828Z,7.27
2018-04-19T02:03:39.714Z,7.70
2018-04-19T02:06:10.596Z,7.23
2018-04-19T02:08:40.287Z,7.20
2018-04-19T02:11:12.668Z,7.17
2018-04-19T02:13:42.003Z,7.40
2018-04-19T02:16:12.916Z,7.97
2018-04-19T02:18:43.036Z,7.70
2018-04-19T02:21:13.404Z,7.13
2018-04-19T02:23:43.743Z,9.17
2018-04-19T02:26:13.550Z,10.30
2018-04-19T02:28:44.869Z,11.23
2018-04-19T02:31:16.019Z,9.03
2018-04-19T02:33:55.434Z,7.87
2018-04-19T02:36:39.246Z,13.27
2018-04-19T02:39:18.776Z,12.50
2018-04-19T02:41:50.691Z,12.23
2018-04-19T02:44:20.232Z,11.17
2018-04-19T02:46:50.862Z,11.67
2018-04-19T02:49:21.743Z,11.47
2018-04-19T02:51:53.180Z,12.67
2018-04-19T02:54:25.066Z,11.40
2018-04-19T02:56:54.919Z,13.00
2018-04-19T02:59:25.107Z,11.37
2018-04-19T03:01:55.343Z,12.27
2018-04-19T03:04:25.845Z,11.53
2018-04-19T03:06:56.168Z,11.87
2018-04-19T03:09:26.255Z,11.80
2018-04-19T03:11:56.149Z,11.00
2018-04-19T03:14:29.331Z,12.47
2018-04-19T03:16:59.816Z,12.03
2018-04-19T03:19:30.146Z,10.50
2018-04-19T03:22:00.746Z,10.83
2018-04-19T03:24:30.430Z,12.30
2018-04-19T03:26:59.970Z,11.77
2018-04-19T03:29:30.199Z,11.37
2018-04-19T03:32:01.591Z,12.47
2018-04-19T03:34:33.127Z,12.43
2018-04-19T03:37:03.686Z,11.30
2018-04-19T03:39:32.756Z,12.63
2018-04-19T03:42:02.156Z,12.00
2018-04-19T03:44:32.437Z,13.07
2018-04-19T03:47:03.251Z,12.67
2018-04-19T03:49:34.831Z,12.87
2018-04-19T03:52:04.448Z,12.40
2018-04-19T03:54:35.932Z,12.40
2018-04-19T03:57:06.654Z,11.30
2018-04-19T03:59:37.751Z,10.73
2018-04-19T04:02:08.419Z,6.83
2018-04-19T04:04:38.836Z,6.17
2018-04-19T04:07:08.763Z,6.03
2018-04-19T04:09:39.529Z,6.63
2018-04-19T04:12:10.119Z,6.50
2018-04-19T04:14:40.516Z,6.80
2018-04-19T04:17:21.299Z,5.87
2018-04-19T04:20:02.031Z,6.47
2018-04-19T04:22:43.995Z,6.50
2018-04-19T04:25:13.111Z,6.20
2018-04-19T04:27:43.221Z,6.10
2018-04-19T04:30:12.739Z,5.90
2018-04-19T04:32:43.087Z,6.10
2018-04-19T04:35:13.868Z,6.97
2018-04-19T04:37:43.321Z,6.53
2018-04-19T04:40:13.925Z,5.90
2018-04-19T04:42:43.335Z,5.47
2018-04-19T04:45:14.401Z,5.37
2018-04-19T04:47:44.568Z,5.87
2018-04-19T04:50:15.682Z,5.80
2018-04-19T04:52:46.553Z,5.23
2018-04-19T04:55:16.490Z,5.90
2018-04-19T04:57:46.850Z,5.90
2018-04-19T05:00:17.001Z,6.20
2018-04-19T05:02:46.402Z,6.30
2018-04-19T05:05:15.763Z,6.13
2018-04-19T05:07:46.108Z,5.43
2018-04-19T05:10:16.520Z,6.90
2018-04-19T05:12:47.288Z,6.90
2018-04-19T05:15:16.655Z,7.07
2018-04-19T05:17:46.976Z,6.40
2018-04-19T05:20:17.503Z,5.70
2018-04-19T05:22:47.850Z,6.20
2018-04-19T05:25:18.911Z,11.30
2018-04-19T05:27:48.868Z,6.60
2018-04-19T05:30:19.152Z,6.70
2018-04-19T05:32:49.600Z,6.70
2018-04-19T05:35:21.017Z,5.77
2018-04-19T05:37:51.223Z,5.47
2018-04-19T05:40:21.635Z,5.63
2018-04-19T05:42:51.907Z,6.67
2018-04-19T05:45:21.165Z,6.13
2018-04-19T05:47:51.811Z,5.53
2018-04-19T05:50:21.919Z,5.70
2018-04-19T05:52:51.124Z,6.30
2018-04-19T05:55:21.684Z,5.20
2018-04-19T05:57:51.963Z,6.40
2018-04-19T06:00:21.894Z,7.30
2018-04-19T06:02:52.259Z,6.03
2018-04-19T06:05:22.367Z,6.97
2018-04-19T06:07:52.732Z,6.00
2018-04-19T06:10:22.886Z,6.53
2018-04-19T06:12:53.240Z,6.33
2018-04-19T06:15:23.736Z,6.60
2018-04-19T06:17:55.059Z,6.40
2018-04-19T06:20:26.868Z,5.30
2018-04-19T06:22:57.828Z,6.90
2018-04-19T06:25:27.896Z,6.37
2018-04-19T06:27:58.099Z,6.50
2018-04-19T06:30:28.004Z,6.10
2018-04-19T06:32:58.175Z,5.63
2018-04-19T06:35:28.831Z,6.43
2018-04-19T06:37:59.795Z,5.63
2018-04-19T06:40:31.248Z,5.00
2018-04-19T06:43:01.107Z,6.03
2018-04-19T06:45:30.414Z,5.50
2018-04-19T06:47:59.926Z,6.80
2018-04-19T06:50:29.940Z,5.30
2018-04-19T06:53:00.157Z,5.63
2018-04-19T06:55:31.119Z,5.33
2018-04-19T06:58:02.397Z,6.10
2018-04-19T07:00:31.620Z,6.00
2018-04-19T07:03:02.544Z,5.00
2018-04-19T07:05:31.991Z,5.60
2018-04-19T07:08:01.476Z,5.60
2018-04-19T07:10:31.859Z,5.33
2018-04-19T07:13:03.223Z,5.87
2018-04-19T07:15:33.147Z,5.43
2018-04-19T07:18:03.506Z,6.07
2018-04-19T07:20:34.787Z,5.73
2018-04-19T07:23:05.033Z,5.53
2018-04-19T07:25:36.013Z,5.60
2018-04-19T07:28:06.367Z,5.37
2018-04-19T07:30:35.852Z,4.93
2018-04-19T07:33:05.589Z,5.80
2018-04-19T07:35:34.927Z,5.40
2018-04-19T07:38:05.404Z,6.20
2018-04-19T07:40:35.216Z,5.57
2018-04-19T07:43:04.831Z,5.77
2018-04-19T07:45:37.260Z,5.83
2018-04-19T07:48:08.771Z,5.90
2018-04-19T07:50:38.555Z,6.17
2018-04-19T07:53:08.392Z,5.60
2018-04-19T07:55:37.425Z,5.53
2018-04-19T07:58:06.984Z,4.77
2018-04-19T08:00:37.144Z,6.00
2018-04-19T08:03:07.429Z,5.43
2018-04-19T08:05:36.870Z,5.30
2018-04-19T08:08:07.240Z,5.90
2018-04-19T08:10:37.844Z,6.00
2018-04-19T08:13:08.112Z,5.50
2018-04-19T08:15:38.899Z,5.27
2018-04-19T08:18:10.491Z,5.57
2018-04-19T08:20:39.604Z,6.90
2018-04-19T08:23:10.136Z,6.80
2018-04-19T08:25:39.482Z,6.13
2018-04-19T08:28:09.671Z,6.00
2018-04-19T08:30:41.680Z,6.90
2018-04-19T08:33:12.077Z,6.67
2018-04-19T08:35:42.067Z,5.70
2018-04-19T08:38:11.707Z,5.70
2018-04-19T08:40:41.856Z,6.10
2018-04-19T08:43:13.494Z,6.00
2018-04-19T08:45:43.521Z,5.30
2018-04-19T08:48:14.152Z,5.50
2018-04-19T08:50:44.873Z,6.13
2018-04-19T08:53:17.492Z,5.97
2018-04-19T08:55:46.571Z,5.97
2018-04-19T08:58:17.540Z,5.80
2018-04-19T09:00:49.387Z,5.37
2018-04-19T09:03:21.232Z,5.90
2018-04-19T09:05:52.327Z,5.60
2018-04-19T09:08:21.444Z,5.47
2018-04-19T09:10:51.644Z,6.27
2018-04-19T09:13:22.860Z,6.77
2018-04-19T09:15:52.867Z,6.27
2018-04-19T09:18:23.380Z,5.83
2018-04-19T09:20:53.571Z,6.23
2018-04-19T09:23:26.116Z,5.57
2018-04-19T09:25:56.987Z,7.60
2018-04-19T09:28:26.716Z,6.73
2018-04-19T09:30:56.282Z,5.80
2018-04-19T09:33:27.905Z,5.90
2018-04-19T09:35:57.808Z,5.40
2018-04-19T09:38:27.235Z,6.43
2018-04-19T09:40:58.792Z,6.00
2018-04-19T09:43:28.919Z,5.20
2018-04-19T09:45:59.024Z,6.00
2018-04-19T09:48:29.975Z,5.80
2018-04-19T09:51:01.899Z,6.00
2018-04-19T09:53:31.505Z,6.20
2018-04-19T09:56:02.095Z,6.43
2018-04-19T09:58:32.529Z,6.30
2018-04-19T10:01:08.791Z,5.90
2018-04-19T10:03:43.448Z,6.40
2018-04-19T10:06:12.867Z,6.83
2018-04-19T10:08:42.164Z,6.40
2018-04-19T10:11:13.789Z,5.80
2018-04-19T10:13:45.293Z,5.33
2018-04-19T10:16:16.258Z,5.67
2018-04-19T10:18:46.220Z,6.83
2018-04-19T10:21:15.719Z,6.83
2018-04-19T10:23:45.967Z,6.30
2018-04-19T10:26:15.968Z,6.00
2018-04-19T10:28:45.853Z,6.00
2018-04-19T10:31:16.171Z,6.47
2018-04-19T10:33:47.357Z,6.10
2018-04-19T10:36:16.859Z,5.90
2018-04-19T10:38:46.987Z,7.07
2018-04-19T10:41:16.794Z,6.47
2018-04-19T10:43:47.027Z,6.60
2018-04-19T10:46:16.176Z,6.80
2018-04-19T10:48:46.068Z,5.97
2018-04-19T10:51:17.491Z,7.10
2018-04-19T10:53:48.860Z,7.07
2018-04-19T10:56:19.662Z,6.40
2018-04-19T10:58:51.355Z,6.33
2018-04-19T11:01:21.244Z,6.33
2018-04-19T11:03:51.233Z,6.53
2018-04-19T11:06:21.871Z,5.50
2018-04-19T11:08:52.198Z,6.00
2018-04-19T11:11:21.812Z,5.83
2018-04-19T11:13:51.899Z,6.30
2018-04-19T11:16:22.243Z,5.73
2018-04-19T11:18:52.843Z,6.37
2018-04-19T11:21:24.384Z,6.37
2018-04-19T11:23:54.835Z,6.77
2018-04-19T11:26:26.976Z,6.50
2018-04-19T11:28:59.236Z,6.77
2018-04-19T11:31:29.051Z,7.03
2018-04-19T11:33:59.540Z,6.37
2018-04-19T11:36:29.730Z,8.57
2018-04-19T11:38:59.296Z,6.60
2018-04-19T11:41:30.408Z,6.17
2018-04-19T11:44:00.709Z,7.07
2018-04-19T11:46:32.843Z,6.80
2018-04-19T11:49:03.959Z,6.30
2018-04-19T11:51:34.096Z,6.33
2018-04-19T11:54:04.647Z,6.37
2018-04-19T11:56:36.195Z,5.93
2018-04-19T11:59:06.616Z,7.57
2018-04-19T12:01:37.644Z,6.87
2018-04-19T12:04:09.051Z,7.60
2018-04-19T12:06:40.627Z,6.80
2018-04-19T12:09:11.669Z,5.70
2018-04-19T12:11:44.352Z,6.90
2018-04-19T12:14:14.412Z,6.63
2018-04-19T12:16:44.287Z,6.90
2018-04-19T12:19:15.077Z,6.53
2018-04-19T12:21:45.059Z,6.73
2018-04-19T12:24:15.110Z,7.30
2018-04-19T12:26:46.742Z,6.40
2018-04-19T12:29:17.811Z,7.60
2018-04-19T12:31:48.034Z,7.13
2018-04-19T12:34:18.365Z,7.53
2018-04-19T12:36:48.916Z,7.27
2018-04-19T12:39:18.814Z,7.73
2018-04-19T12:41:47.811Z,7.70
2018-04-19T12:44:17.804Z,7.20
2018-04-19T12:46:46.926Z,6.37
2018-04-19T12:49:16.200Z,7.30
2018-04-19T12:51:45.235Z,7.47
2018-04-19T12:54:15.347Z,6.90
2018-04-19T12:56:45.460Z,6.70
2018-04-19T12:59:14.756Z,7.80
2018-04-19T13:01:43.953Z,6.00
2018-04-19T13:04:13.236Z,7.03
2018-04-19T13:06:42.248Z,8.30
2018-04-19T13:09:11.346Z,8.57
2018-04-19T13:11:40.432Z,8.63
2018-04-19T13:14:09.583Z,7.50
2018-04-19T13:16:39.476Z,7.37
2018-04-19T13:19:08.760Z,8.07
2018-04-19T13:21:37.851Z,8.50
2018-04-19T13:24:07.080Z,8.03
2018-04-19T13:26:37.192Z,7.07
2018-04-19T13:29:06.355Z,7.50
2018-04-19T13:31:35.269Z,7.40
2018-04-19T13:34:04.369Z,6.77
2018-04-19T13:36:33.189Z,7.70
2018-04-19T13:39:02.994Z,6.40
2018-04-19T13:41:32.487Z,6.53
2018-04-19T13:44:01.895Z,7.07
2018-04-19T13:46:30.992Z,6.97
2018-04-19T13:49:00.280Z,6.40
2018-04-19T13:51:29.301Z,7.13
2018-04-19T13:53:59.596Z,7.63
2018-04-19T13:56:28.736Z,7.40
2018-04-19T13:58:58.916Z,6.70
2018-04-19T14:01:28.023Z,7.20
2018-04-19T14:03:57.315Z,6.97
2018-04-19T14:06:26.424Z,7.00
2018-04-19T14:08:55.816Z,7.40
2018-04-19T14:11:25.149Z,6.73
2018-04-19T14:13:55.106Z,7.63
2018-04-19T14:16:24.180Z,7.07
2018-04-19T14:18:53.341Z,7.57
2018-04-19T14:21:22.317Z,8.90
2018-04-19T14:23:51.392Z,7.90
2018-04-19T14:26:20.408Z,8.00
2018-04-19T14:28:49.656Z,7.90
2018-04-19T14:31:19.530Z,8.27
2018-04-19T14:33:48.775Z,8.33
2018-04-19T14:36:17.767Z,7.30
2018-04-19T14:38:46.895Z,7.10
2018-04-19T14:41:15.931Z,7.70
2018-04-19T14:43:46.560Z,7.43
2018-04-19T14:46:17.085Z,8.97
2018-04-19T14:48:46.168Z,8.50
2018-04-19T14:51:16.098Z,8.47
2018-04-19T14:53:45.395Z,7.57
2018-04-19T14:56:14.491Z,7.53
2018-04-19T14:58:43.635Z,8.70
2018-04-19T15:01:12.613Z,8.83
2018-04-19T15:03:42.572Z,7.83
2018-04-19T15:06:11.814Z,7.87
2018-04-19T15:08:42.145Z,8.03
2018-04-19T15:11:11.532Z,8.30
2018-04-19T15:13:40.760Z,7.87
2018-04-19T15:16:10.719Z,8.80
2018-04-19T15:18:39.946Z,8.07
2018-04-19T15:21:09.529Z,8.30
2018-04-19T15:23:43.995Z,8.37
2018-04-19T15:26:13.080Z,8.50
2018-04-19T15:28:42.276Z,8.10
2018-04-19T15:31:11.678Z,8.63
2018-04-19T15:33:40.853Z,8.80
2018-04-19T15:36:09.896Z,9.23
2018-04-19T15:38:38.991Z,9.70
2018-04-19T15:41:07.896Z,9.70
2018-04-19T15:43:37.532Z,9.30
2018-04-19T15:46:06.787Z,8.83
2018-04-19T15:48:37.061Z,9.30
2018-04-19T15:51:06.200Z,9.17
2018-04-19T15:53:35.494Z,8.47
2018-04-19T15:56:04.476Z,8.80
2018-04-19T15:58:33.787Z,8.80
2018-04-19T16:01:02.831Z,8.87
2018-04-19T16:03:31.979Z,8.37
2018-04-19T16:06:00.823Z,8.97
2018-04-19T16:08:29.945Z,9.30
2018-04-19T16:10:59.176Z,9.50
2018-04-19T16:13:28.425Z,9.00
2018-04-19T16:15:57.747Z,9.70
2018-04-19T16:18:27.087Z,10.33
2018-04-19T16:20:56.179Z,9.10
2018-04-19T16:23:25.364Z,11.10
2018-04-19T16:25:54.465Z,9.33
2018-04-19T16:28:23.652Z,9.30
2018-04-19T16:30:52.776Z,7.87
2018-04-19T16:33:23.476Z,8.40
2018-04-19T16:35:52.411Z,8.70
2018-04-19T16:38:21.585Z,9.33
2018-04-19T16:40:50.589Z,9.10
2018-04-19T16:43:22.619Z,8.37
2018-04-19T16:45:51.763Z,8.70
2018-04-19T16:48:20.964Z,8.77
2018-04-19T16:50:49.975Z,9.13
2018-04-19T16:53:19.952Z,8.47
2018-04-19T16:55:49.125Z,8.73
2018-04-19T16:58:18.948Z,9.10
2018-04-19T17:00:48.400Z,9.87
2018-04-19T17:03:17.673Z,8.70
2018-04-19T17:05:47.487Z,9.80
2018-04-19T17:08:16.971Z,10.23
2018-04-19T17:10:46.219Z,9.17
2018-04-19T17:13:17.500Z,10.33
2018-04-19T17:15:47.399Z,9.83
2018-04-19T17:18:17.861Z,10.40
2018-04-19T17:20:51.570Z,8.87
2018-04-19T17:23:23.583Z,8.50
2018-04-19T17:25:52.736Z,7.40
2018-04-19T17:28:21.867Z,8.10
2018-04-19T17:30:51.079Z,8.00
2018-04-19T17:33:20.615Z,8.70
2018-04-19T17:35:50.364Z,9.10
2018-04-19T17:38:19.677Z,8.53
2018-04-19T17:40:48.799Z,10.10
2018-04-19T17:43:19.017Z,9.13
2018-04-19T17:45:48.488Z,8.73
2018-04-19T17:48:19.168Z,9.20
2018-04-19T17:50:49.589Z,9.90
2018-04-19T17:53:18.775Z,9.80
2018-04-19T17:55:50.013Z,9.93
2018-04-19T17:58:20.023Z,9.67
2018-04-19T18:00:50.638Z,9.73
2018-04-19T18:03:19.891Z,8.67
2018-04-19T18:05:50.213Z,9.67
2018-04-19T18:08:21.278Z,8.40
2018-04-19T18:10:52.137Z,8.80
2018-04-19T18:13:21.638Z,9.03
2018-04-19T18:15:52.775Z,8.73
2018-04-19T18:18:22.051Z,8.83
2018-04-19T18:20:52.055Z,9.90
2018-04-19T18:23:21.112Z,8.73
2018-04-19T18:25:52.556Z,9.13
2018-04-19T18:28:22.634Z,9.43
2018-04-19T18:30:53.840Z,9.40
2018-04-19T18:33:24.736Z,9.60
2018-04-19T18:35:54.956Z,9.77
2018-04-19T18:38:24.854Z,9.73
2018-04-19T18:40:54.701Z,8.87
2018-04-19T18:43:24.148Z,9.60
2018-04-19T18:45:53.365Z,10.67
2018-04-19T18:48:25.845Z,10.20
2018-04-19T18:50:55.764Z,9.10
2018-04-19T18:53:25.165Z,10.00
2018-04-19T18:55:54.385Z,9.80
2018-04-19T18:58:24.709Z,10.00
2018-04-19T19:00:54.458Z,10.50
2018-04-19T19:03:23.953Z,9.53
2018-04-19T19:05:54.506Z,9.60
2018-04-19T19:08:25.285Z,10.00
2018-04-19T19:10:54.517Z,9.13
2018-04-19T19:13:23.744Z,9.80
2018-04-19T19:16:10.608Z,8.53
2018-04-19T19:18:52.858Z,9.50
2018-04-19T19:21:22.253Z,9.40
2018-04-19T19:23:51.597Z,8.93
2018-04-19T19:26:20.707Z,9.50
2018-04-19T19:28:50.002Z,9.50
2018-04-19T19:31:19.075Z,10.03
2018-04-19T19:33:48.439Z,9.47
2018-04-19T19:36:18.428Z,9.13
2018-04-19T19:38:48.024Z,9.27
2018-04-19T19:41:16.996Z,8.83
2018-04-19T19:43:46.180Z,9.40
2018-04-19T19:46:15.196Z,10.03
2018-04-19T19:48:44.276Z,9.37
2018-04-19T19:51:13.300Z,9.57
2018-04-19T19:53:42.264Z,9.40
2018-04-19T19:56:11.371Z,8.97
2018-04-19T19:58:40.488Z,9.93
2018-04-19T20:01:09.801Z,10.30
2018-04-19T20:03:39.211Z,11.70
2018-04-19T20:06:08.407Z,13.60
2018-04-19T20:08:37.492Z,10.63
2018-04-19T20:11:06.499Z,9.47
2018-04-19T20:13:35.772Z,10.00
2018-04-19T20:16:04.872Z,9.60
2018-04-19T20:18:34.071Z,9.10
2018-04-19T20:21:02.980Z,9.90
2018-04-19T20:23:32.279Z,9.50
2018-04-19T20:26:01.372Z,11.50
2018-04-19T20:28:30.562Z,10.70
2018-04-19T20:30:59.595Z,11.00
2018-04-19T20:33:29.532Z,10.37
2018-04-19T20:35:59.350Z,11.83
2018-04-19T20:38:28.327Z,10.50
2018-04-19T20:40:58.248Z,13.10
2018-04-19T20:43:28.339Z,13.83
2018-04-19T20:45:57.532Z,13.70
2018-04-19T20:48:26.911Z,16.77
2018-04-19T20:50:56.031Z,18.67
2018-04-19T20:53:25.156Z,20.07
2018-04-19T20:55:55.148Z,17.10
2018-04-19T20:58:24.359Z,15.53
2018-04-19T21:00:53.439Z,17.00
2018-04-19T21:03:22.668Z,18.53
2018-04-19T21:05:52.721Z,19.00
2018-04-19T21:08:21.959Z,16.80
2018-04-19T21:10:51.070Z,17.30
2018-04-19T21:13:20.254Z,16.73
2018-04-19T21:15:49.345Z,16.93
2018-04-19T21:18:18.576Z,15.90
2018-04-19T21:20:47.648Z,14.73
2018-04-19T21:23:16.879Z,14.83
2018-04-19T21:25:46.660Z,16.40
2018-04-19T21:28:15.848Z,18.00
2018-04-19T21:30:44.959Z,17.07
2018-04-19T21:33:14.208Z,17.90
2018-04-19T21:35:43.180Z,16.00
2018-04-19T21:38:12.485Z,16.53
2018-04-19T21:40:42.357Z,14.80
2018-04-19T21:43:11.971Z,14.77
2018-04-19T21:45:40.900Z,13.93
2018-04-19T21:48:10.952Z,15.30
2018-04-19T21:50:39.987Z,14.10
2018-04-19T21:53:09.276Z,14.20
2018-04-19T21:55:38.372Z,15.07
2018-04-19T21:58:07.512Z,16.40
2018-04-19T22:00:37.515Z,14.10
2018-04-19T22:03:07.736Z,13.30
2018-04-19T22:05:36.891Z,14.83
2018-04-19T22:08:06.222Z,14.77
2018-04-19T22:10:35.951Z,14.63
2018-04-19T22:13:05.067Z,15.83
2018-04-19T22:15:34.947Z,13.97
2018-04-19T22:18:04.149Z,15.03
2018-04-19T22:20:33.280Z,16.20
2018-04-19T22:23:03.473Z,14.80
2018-04-19T22:25:32.462Z,14.93
2018-04-19T22:28:01.768Z,16.50
2018-04-19T22:30:32.388Z,14.37
2018-04-19T22:33:03.227Z,13.67
2018-04-19T22:35:32.350Z,13.90
2018-04-19T22:38:01.419Z,13.97
2018-04-19T22:40:30.579Z,13.40
2018-04-19T22:42:59.679Z,13.87
2018-04-19T22:45:28.935Z,13.70
2018-04-19T22:47:58.245Z,13.67
2018-04-19T22:50:27.527Z,12.87
2018-04-19T22:52:56.831Z,13.23
2018-04-19T22:55:25.912Z,13.70
2018-04-19T22:57:55.119Z,14.83
2018-04-19T23:00:25.440Z,14.43
2018-04-19T23:02:54.431Z,15.17
2018-04-19T23:05:23.471Z,14.73
2018-04-19T23:07:53.563Z,13.27
2018-04-19T23:10:22.644Z,13.00
2018-04-19T23:12:51.843Z,13.37
2018-04-19T23:15:20.663Z,14.90
2018-04-19T23:17:50.847Z,14.40
2018-04-19T23:20:19.971Z,14.00
2018-04-19T23:22:49.274Z,13.33
2018-04-19T23:25:18.366Z,12.27
2018-04-19T23:27:47.567Z,12.50
2018-04-19T23:30:16.559Z,12.40
2018-04-19T23:32:45.992Z,12.27
2018-04-19T23:35:15.868Z,13.97
2018-04-19T23:37:45.184Z,11.70
2018-04-19T23:40:15.268Z,12.07
2018-04-19T23:42:44.592Z,11.40
2018-04-19T23:45:13.688Z,11.97
2018-04-19T23:47:42.913Z,11.13
2018-04-19T23:50:12.833Z,11.83
2018-04-19T23:52:42.228Z,12.03
2018-04-19T23:55:11.303Z,12.20
2018-04-19T23:57:40.563Z,11.90
